Time;durP1;ratioP1;P1;durP2;ratioP2;P2;SDS_P1;SDS_P2;PMS_P1;PMS_P2;Temp;Humidity;BMP_temperature;BMP_pressure;BME280_temperature;BME280_humidity;BME280_pressure;Samples;Min_cycle;Max_cycle;Signal;HPM_P1;HPM_P2
2022/12/25 00:01:41;;;;;;;;;;;;;;;0.19;76.59;99694.31;5065657;28;19932;-67
2022/12/25 00:04:07;;;;;;;;;;;;;;;0.18;76.43;99698.84;5081616;28;19931;-66
2022/12/25 00:06:32;;;;;;;;;;;;;;;0.09;76.34;99700.13;5085533;28;19928;-67
2022/12/25 00:08:58;;;;;;;;;;;;;;;0.03;76.59;99709.00;5085731;28;19932;-67
2022/12/25 00:11:25;;;;;;;;;;;;;;;-0.09;76.30;99709.63;5087701;28;20403;-67
2022/12/25 00:13:51;;;;;;;;;;;;;;;-0.12;76.81;99715.41;5094927;28;20557;-67
2022/12/25 00:16:18;;;;;;;;;;;;;;;-0.13;76.88;99726.38;5102827;28;20026;-68
2022/12/25 00:18:43;;;;;;;;;;;;;;;-0.12;77.33;99734.22;5105995;28;20042;-67
2022/12/25 00:21:10;;;;;;;;;;;;;;;-0.11;77.10;99735.06;5103790;28;20446;-67
2022/12/25 00:23:35;;;;;;;;;;;;;;;-0.11;76.79;99743.13;5110602;28;19927;-67
2022/12/25 00:26:03;;;;;;;;;;;;;;;-0.15;76.52;99737.34;5108006;28;19927;-68
2022/12/25 00:28:30;;;;;;;;;;;;;;;-0.19;76.57;99746.84;5094710;28;20116;-67
2022/12/25 00:30:56;;;;;;;;;;;;;;;-0.22;76.49;99750.75;5085151;28;19975;-67
2022/12/25 00:33:23;;;;;;;;;;;;;;;-0.20;76.21;99755.94;5085774;28;19963;-68
2022/12/25 00:35:56;;;;;;;;;;;;;;;-0.19;75.80;99755.72;5086169;28;20195;-67
2022/12/25 00:38:21;;;;;;;;;;;;;;;-0.22;75.26;99761.50;5087611;28;20018;-67
2022/12/25 00:40:47;;;;;;;;;;;;;;;-0.24;75.23;99752.81;5087188;28;19932;-67
2022/12/25 00:43:13;;;;;;;;;;;;;;;-0.29;75.09;99758.81;5084691;28;19958;-67
2022/12/25 00:45:40;;;;;;;;;;;;;;;-0.32;75.13;99771.81;5084468;28;19959;-66
2022/12/25 00:48:06;;;;;;;;;;;;;;;-0.37;74.72;99761.72;5086380;28;19967;-67
2022/12/25 00:50:31;;;;;;;;;;;;;;;-0.41;74.81;99773.06;5104383;28;20012;-67
2022/12/25 00:52:57;;;;;;;;;;;;;;;-0.44;75.07;99772.44;5103950;28;19928;-66
2022/12/25 00:55:23;;;;;;;;;;;;;;;-0.47;74.58;99780.91;5104362;28;19934;-67
2022/12/25 00:57:48;;;;;;;;;;;;;;;-0.54;74.34;99784.59;5104372;28;19934;-66
2022/12/25 01:00:14;;;;;;;;;;;;;;;-0.59;74.25;99779.84;5095928;28;19978;-67
2022/12/25 01:02:42;;;;;;;;;;;;;;;-0.64;74.36;99791.19;5087335;28;19963;-67
2022/12/25 01:05:08;;;;;;;;;;;;;;;-0.72;73.99;99796.72;5086939;28;20422;-67
2022/12/25 01:07:34;;;;;;;;;;;;;;;-0.79;74.07;99809.28;5086042;28;19928;-67
2022/12/25 01:12:44;;;;;;;;;;;;;;;-0.98;73.45;99814.38;5086273;28;19963;-67
2022/12/25 01:15:10;;;;;;;;;;;;;;;-1.03;73.39;99820.31;5084263;28;19963;-67
2022/12/25 01:17:36;;;;;;;;;;;;;;;-1.08;73.51;99820.09;5084512;28;19928;-67
2022/12/25 01:20:04;;;;;;;;;;;;;;;-1.10;73.37;99827.50;5084104;28;19997;-67
2022/12/25 01:22:29;;;;;;;;;;;;;;;-1.11;73.41;99828.53;5085840;28;19973;-67
2022/12/25 01:24:55;;;;;;;;;;;;;;;-1.11;73.70;99833.06;5104299;28;19927;-67
2022/12/25 01:27:22;;;;;;;;;;;;;;;-1.07;73.73;99831.66;5105585;28;19928;-67
2022/12/25 01:29:51;;;;;;;;;;;;;;;-1.03;73.72;99836.44;5105171;28;20410;-67
2022/12/25 01:32:17;;;;;;;;;;;;;;;-1.00;73.81;99830.66;5103879;28;19962;-67
2022/12/25 01:34:44;;;;;;;;;;;;;;;-0.95;73.21;99837.28;5104120;28;19980;-67
2022/12/25 01:37:11;;;;;;;;;;;;;;;-0.93;73.10;99837.94;5106347;28;19931;-67
2022/12/25 01:39:37;;;;;;;;;;;;;;;-0.90;73.11;99846.41;5102702;28;19954;-67
2022/12/25 01:42:03;;;;;;;;;;;;;;;-0.86;73.14;99838.78;5102132;28;19958;-68
2022/12/25 01:44:50;;;;;;;;;;;;;;;-0.82;73.25;99842.72;5105810;28;19927;-68
2022/12/25 01:47:17;;;;;;;;;;;;;;;-0.81;72.96;99852.44;5107690;28;19924;-67
2022/12/25 01:49:44;;;;;;;;;;;;;;;-0.80;72.69;99855.97;5105191;28;19927;-67
2022/12/25 01:52:14;;;;;;;;;;;;;;;-0.81;72.81;99857.81;5086162;28;20029;-67
2022/12/25 01:54:40;;;;;;;;;;;;;;;-0.84;72.75;99857.41;5098637;28;19928;-66
2022/12/25 01:57:08;;;;;;;;;;;;;;;-0.83;72.83;99853.69;5083245;28;19927;-66
2022/12/25 01:59:34;;;;;;;;;;;;;;;-0.83;73.02;99865.25;5082652;28;19932;-67
2022/12/25 02:02:00;;;;;;;;;;;;;;;-0.84;73.12;99858.22;5083012;28;19989;-67
2022/12/25 02:04:39;;;;;;;;;;;;;;;-0.80;73.26;99866.72;5094596;28;19927;-66
2022/12/25 02:07:05;;;;;;;;;;;;;;;-0.78;73.07;99870.03;5103724;28;20426;-67
2022/12/25 02:09:33;;;;;;;;;;;;;;;-0.80;72.76;99864.84;5104305;28;19931;-67
2022/12/25 02:11:59;;;;;;;;;;;;;;;-0.84;72.42;99874.31;5102835;28;20374;-67
2022/12/25 02:14:26;;;;;;;;;;;;;;;-0.85;72.39;99878.03;5101750;28;19931;-67
2022/12/25 02:16:55;;;;;;;;;;;;;;;-1.01;72.03;99863.91;5103463;28;20036;-66
2022/12/25 02:19:30;;;;;;;;;;;;;;;-0.98;71.99;99876.13;5102091;28;19928;-67
2022/12/25 02:22:00;;;;;;;;;;;;;;;-1.03;71.86;99878.53;5104178;28;20026;-65
2022/12/25 02:24:49;;;;;;;;;;;;;;;-1.05;71.91;99891.31;5105368;28;19928;-65
2022/12/25 02:27:22;;;;;;;;;;;;;;;-1.10;72.21;99899.97;5082993;28;20377;-65
2022/12/25 02:29:55;;;;;;;;;;;;;;;-1.16;72.22;99890.03;5083753;28;19928;-66
2022/12/25 02:32:24;;;;;;;;;;;;;;;-1.21;72.05;99895.97;5084344;28;19928;-65
2022/12/25 02:34:52;;;;;;;;;;;;;;;-1.27;72.10;99899.44;5082191;28;20395;-65
2022/12/25 02:37:22;;;;;;;;;;;;;;;-1.30;72.32;99911.38;5083186;28;19936;-65
2022/12/25 02:39:58;;;;;;;;;;;;;;;-1.35;72.31;99905.78;5083354;28;20324;-65
2022/12/25 03:06:41;;;;;;;;;;;;;;;-1.38;72.52;99914.22;5094747;28;19950;-67
2022/12/25 03:07:17;;;;;;;;;;;;;;;-1.44;73.08;99939.97;5103620;28;19974;-67
2022/12/25 03:12:37;;;;;;;;;;;;;;;-1.43;73.50;99946.13;5082857;28;19928;-66
2022/12/25 03:17:49;;;;;;;;;;;;;;;-1.42;73.04;99955.84;5081980;28;19935;-66
2022/12/25 03:28:28;;;;;;;;;;;;;;;-1.51;73.29;99965.88;5104274;28;20123;-67
2022/12/25 03:31:11;;;;;;;;;;;;;;;-1.49;72.96;99960.31;5099917;28;20142;-67
2022/12/25 03:36:35;;;;;;;;;;;;;;;-1.52;73.13;99974.94;5104404;28;20052;-65
2022/12/25 04:37:10;;;;;;;;;;;;;;;-2.03;68.00;100040.13;5085159;28;19938;-66
2022/12/25 04:39:37;;;;;;;;;;;;;;;-2.05;68.21;100032.31;5083438;28;19931;-66
2022/12/25 04:42:02;;;;;;;;;;;;;;;-2.01;68.05;100036.25;5083336;28;19928;-66
2022/12/25 04:44:28;;;;;;;;;;;;;;;-1.97;68.09;100039.41;5086370;28;20452;-66
2022/12/25 04:46:54;;;;;;;;;;;;;;;-1.94;68.24;100047.06;5083997;28;19928;-66
2022/12/25 04:49:20;;;;;;;;;;;;;;;-1.90;68.43;100052.91;5086532;28;20180;-66
2022/12/25 04:51:45;;;;;;;;;;;;;;;-1.86;67.87;100055.03;5088393;28;19928;-67
2022/12/25 04:54:11;;;;;;;;;;;;;;;-1.88;68.06;100054.34;5085454;28;20041;-66
2022/12/25 04:56:38;;;;;;;;;;;;;;;-1.89;68.23;100067.97;5084725;28;19951;-67
2022/12/25 04:59:05;;;;;;;;;;;;;;;-1.89;68.25;100062.59;5082412;28;19928;-66
2022/12/25 05:01:30;;;;;;;;;;;;;;;-2.01;68.77;100055.03;5084552;28;19928;-66
2022/12/25 05:03:56;;;;;;;;;;;;;;;-1.90;69.07;100077.84;5084356;28;19935;-66
2022/12/25 05:06:22;;;;;;;;;;;;;;;-1.90;69.12;100079.72;5099608;28;20413;-66
2022/12/25 05:08:47;;;;;;;;;;;;;;;-1.88;69.27;100089.22;5099838;28;20433;-64
2022/12/25 05:11:14;;;;;;;;;;;;;;;-1.87;69.09;100092.72;5092925;28;20422;-65
2022/12/25 05:13:41;;;;;;;;;;;;;;;-2.06;68.72;100072.66;5067102;28;19928;-65
2022/12/25 05:16:08;;;;;;;;;;;;;;;-2.03;68.73;100091.91;5084829;28;19939;-66
2022/12/25 05:18:34;;;;;;;;;;;;;;;-2.02;68.84;100106.16;5083684;28;19935;-66
2022/12/25 05:20:59;;;;;;;;;;;;;;;-2.10;68.14;100111.59;5084036;28;19928;-67
2022/12/25 05:23:25;;;;;;;;;;;;;;;-2.21;67.99;100120.91;5084263;28;20436;-66
2022/12/25 05:25:51;;;;;;;;;;;;;;;-2.34;67.90;100122.38;5083909;28;19928;-66
2022/12/25 05:28:16;;;;;;;;;;;;;;;-2.34;67.86;100130.41;5085313;28;19932;-66
2022/12/25 05:30:43;;;;;;;;;;;;;;;-2.33;67.56;100139.28;5083728;28;19935;-66
2022/12/25 05:33:09;;;;;;;;;;;;;;;-2.33;67.42;100142.78;5083389;28;19983;-66
2022/12/25 05:35:35;;;;;;;;;;;;;;;-2.31;67.54;100147.97;5084262;28;19928;-66
2022/12/25 05:38:01;;;;;;;;;;;;;;;-2.28;67.47;100144.91;5087803;28;19935;-66
2022/12/25 05:40:27;;;;;;;;;;;;;;;-2.26;67.33;100155.44;5084804;28;19928;-66
2022/12/25 05:42:53;;;;;;;;;;;;;;;-2.31;67.26;100156.81;5083366;28;19928;-66
2022/12/25 05:45:19;;;;;;;;;;;;;;;-2.33;67.23;100152.69;5084229;28;19928;-66
2022/12/25 05:47:46;;;;;;;;;;;;;;;-2.33;67.29;100163.41;5087431;28;19932;-66
2022/12/25 05:50:12;;;;;;;;;;;;;;;-2.30;67.39;100171.06;5085366;28;19933;-66
2022/12/25 05:52:38;;;;;;;;;;;;;;;-2.27;67.42;100176.06;5086977;28;19928;-66
2022/12/25 05:55:04;;;;;;;;;;;;;;;-2.24;67.67;100175.69;5094554;28;19928;-66
2022/12/25 05:57:30;;;;;;;;;;;;;;;-2.21;67.51;100167.28;5084194;28;19928;-66
2022/12/25 05:59:56;;;;;;;;;;;;;;;-2.20;67.45;100179.66;5101146;28;19934;-66
2022/12/25 06:02:22;;;;;;;;;;;;;;;-2.22;67.63;100181.69;5105487;28;20093;-67
2022/12/25 06:04:49;;;;;;;;;;;;;;;-2.21;67.72;100187.91;5103597;28;19935;-67
2022/12/25 06:07:15;;;;;;;;;;;;;;;-2.20;67.42;100187.69;5105943;28;20465;-66
2022/12/25 06:09:40;;;;;;;;;;;;;;;-2.22;67.38;100187.03;5075524;28;20004;-67
2022/12/25 06:12:06;;;;;;;;;;;;;;;-2.23;67.21;100192.59;5082445;28;19931;-66
2022/12/25 06:14:32;;;;;;;;;;;;;;;-2.23;67.21;100197.97;5084398;28;19954;-65
2022/12/25 06:16:58;;;;;;;;;;;;;;;-2.24;67.28;100201.66;5084540;28;19934;-66
2022/12/25 06:19:23;;;;;;;;;;;;;;;-2.26;67.42;100203.66;5084299;28;19928;-65
2022/12/25 06:21:53;;;;;;;;;;;;;;;-2.27;67.42;100208.19;5085104;28;20034;-65
2022/12/25 06:24:19;;;;;;;;;;;;;;;-2.26;67.24;100211.69;5085543;28;19977;-65
2022/12/25 06:26:44;;;;;;;;;;;;;;;-2.27;67.28;100213.56;5067615;28;19928;-66
2022/12/25 06:29:10;;;;;;;;;;;;;;;-2.29;67.77;100219.09;5064351;28;19979;-65
2022/12/25 06:31:36;;;;;;;;;;;;;;;-2.35;67.50;100216.28;5083430;28;20390;-65
2022/12/25 06:34:01;;;;;;;;;;;;;;;-2.40;67.64;100216.00;5082509;28;19988;-65
2022/12/25 06:36:28;;;;;;;;;;;;;;;-2.46;67.66;100213.03;5082105;28;19935;-66
2022/12/25 06:38:55;;;;;;;;;;;;;;;-2.45;67.02;100214.69;5102491;28;19928;-67
2022/12/25 06:41:22;;;;;;;;;;;;;;;-2.46;67.21;100226.44;5089393;28;20022;-66
2022/12/25 06:43:48;;;;;;;;;;;;;;;-2.48;67.44;100225.78;5084233;28;20288;-66
2022/12/25 06:46:14;;;;;;;;;;;;;;;-2.45;67.68;100232.59;5082774;28;19928;-66
2022/12/25 06:48:48;;;;;;;;;;;;;;;-2.35;67.87;100235.03;5083485;28;20179;-65
2022/12/25 06:51:14;;;;;;;;;;;;;;;-2.31;67.60;100231.00;5083689;28;19934;-65
2022/12/25 06:53:39;;;;;;;;;;;;;;;-2.28;67.26;100234.16;5080488;28;19959;-65
2022/12/25 06:56:08;;;;;;;;;;;;;;;-2.28;67.04;100236.81;5080979;28;20509;-65
2022/12/25 06:58:33;;;;;;;;;;;;;;;-2.32;66.32;100248.09;5081679;28;19932;-65
2022/12/25 07:00:59;;;;;;;;;;;;;;;-2.33;65.77;100246.44;5080562;28;20394;-66
2022/12/25 07:03:27;;;;;;;;;;;;;;;-2.37;65.48;100253.13;5065704;28;19928;-67
2022/12/25 07:05:52;;;;;;;;;;;;;;;-2.36;65.79;100244.09;5082296;28;19935;-67
2022/12/25 07:08:18;;;;;;;;;;;;;;;-2.33;65.89;100249.94;5082504;28;19927;-66
2022/12/25 07:10:44;;;;;;;;;;;;;;;-2.30;65.91;100252.25;5084350;28;20001;-66
2022/12/25 07:13:11;;;;;;;;;;;;;;;-2.26;65.78;100249.19;5081875;28;19927;-66
2022/12/25 07:15:37;;;;;;;;;;;;;;;-2.30;65.95;100243.38;5083897;28;19932;-66
2022/12/25 07:18:03;;;;;;;;;;;;;;;-2.31;65.65;100241.72;5101995;28;19946;-66
2022/12/25 07:20:35;;;;;;;;;;;;;;;-2.37;65.53;100247.78;5102702;28;19928;-66
2022/12/25 07:23:00;;;;;;;;;;;;;;;-2.36;65.58;100249.44;5105359;28;20031;-66
2022/12/25 07:25:26;;;;;;;;;;;;;;;-2.35;66.02;100257.31;5097042;28;20502;-67
2022/12/25 07:27:52;;;;;;;;;;;;;;;-2.31;66.13;100261.31;5095110;28;20288;-66
2022/12/25 07:30:19;;;;;;;;;;;;;;;-2.27;65.77;100259.09;5106609;28;19938;-66
2022/12/25 07:32:45;;;;;;;;;;;;;;;-2.22;65.96;100256.72;5104398;28;20341;-66
2022/12/25 07:35:11;;;;;;;;;;;;;;;-2.19;66.14;100260.88;5105598;28;19928;-66
2022/12/25 07:37:37;;;;;;;;;;;;;;;-2.20;66.29;100273.44;5107569;28;19934;-66
2022/12/25 07:40:03;;;;;;;;;;;;;;;-2.17;66.30;100277.63;5106902;28;19970;-67
2022/12/25 07:42:30;;;;;;;;;;;;;;;-2.15;66.22;100272.91;5107770;28;19928;-66
2022/12/25 07:44:57;;;;;;;;;;;;;;;-2.12;66.06;100269.03;5105355;28;19973;-67
2022/12/25 07:47:24;;;;;;;;;;;;;;;-2.12;65.95;100282.44;5107342;27;19931;-66
2022/12/25 07:49:50;;;;;;;;;;;;;;;-2.16;65.98;100288.16;5092665;28;20347;-65
2022/12/25 07:52:16;;;;;;;;;;;;;;;-2.17;65.88;100291.84;5107641;28;19970;-65
2022/12/25 07:54:41;;;;;;;;;;;;;;;-2.16;65.95;100303.41;5085704;28;20486;-65
2022/12/25 07:57:07;;;;;;;;;;;;;;;-2.20;65.60;100302.09;5105101;28;19935;-66
2022/12/25 07:59:33;;;;;;;;;;;;;;;-2.25;65.64;100302.63;5087090;28;19974;-65
2022/12/25 08:01:59;;;;;;;;;;;;;;;-2.24;65.64;100317.69;5085561;28;20110;-66
2022/12/25 08:04:26;;;;;;;;;;;;;;;-2.26;65.61;100319.72;5094583;28;19932;-66
2022/12/25 08:06:52;;;;;;;;;;;;;;;-2.39;65.45;100314.09;5080831;28;19932;-65
2022/12/25 08:09:17;;;;;;;;;;;;;;;-2.47;65.84;100323.00;5078327;28;19928;-66
2022/12/25 08:11:44;;;;;;;;;;;;;;;-2.45;66.33;100326.34;5083442;28;19928;-66
2022/12/25 08:14:10;;;;;;;;;;;;;;;-2.39;66.04;100327.50;5088737;28;20290;-65
2022/12/25 08:16:40;;;;;;;;;;;;;;;-2.53;66.21;100300.44;5099276;28;20314;-67
2022/12/25 08:19:05;;;;;;;;;;;;;;;-2.32;66.40;100334.66;5099263;28;19981;-67
2022/12/25 08:21:33;;;;;;;;;;;;;;;-2.25;66.02;100336.63;5098751;28;19928;-66
2022/12/25 08:23:58;;;;;;;;;;;;;;;-2.31;65.83;100332.81;5106830;28;19927;-67
2022/12/25 08:26:24;;;;;;;;;;;;;;;-2.38;65.73;100330.00;5094200;28;19935;-66
2022/12/25 08:28:50;;;;;;;;;;;;;;;-2.43;65.46;100335.88;5095316;28;19968;-67
2022/12/25 08:31:17;;;;;;;;;;;;;;;-2.44;65.68;100328.88;5083277;28;19928;-66
2022/12/25 08:33:43;;;;;;;;;;;;;;;-2.50;65.61;100337.59;5085782;28;19928;-67
2022/12/25 08:36:09;;;;;;;;;;;;;;;-2.56;65.72;100349.00;5087706;28;20383;-67
2022/12/25 08:38:37;;;;;;;;;;;;;;;-2.60;66.13;100353.06;5086901;28;19928;-67
2022/12/25 08:41:03;;;;;;;;;;;;;;;-2.61;65.79;100357.56;5085003;28;19932;-66
2022/12/25 08:43:32;;;;;;;;;;;;;;;-2.67;66.06;100357.41;5083968;28;20645;-66
2022/12/25 08:45:58;;;;;;;;;;;;;;;-2.75;66.19;100364.50;5085058;28;20516;-66
2022/12/25 08:48:23;;;;;;;;;;;;;;;-2.73;66.12;100361.66;5083541;28;19935;-66
2022/12/25 08:50:50;;;;;;;;;;;;;;;-2.71;66.33;100362.31;5088691;28;20379;-67
2022/12/25 08:53:16;;;;;;;;;;;;;;;-2.59;66.37;100366.25;5088480;28;20411;-65
2022/12/25 08:55:43;;;;;;;;;;;;;;;-2.47;66.16;100365.88;5093964;28;19928;-66
2022/12/25 08:58:09;;;;;;;;;;;;;;;-2.38;66.31;100364.84;5086713;28;19951;-65
2022/12/25 09:00:35;;;;;;;;;;;;;;;-2.30;66.21;100358.59;5068372;28;20410;-65
2022/12/25 09:03:01;;;;;;;;;;;;;;;-2.35;65.91;100360.94;5099053;28;19928;-66
2022/12/25 09:05:27;;;;;;;;;;;;;;;-2.36;65.85;100368.16;5086659;28;19928;-65
2022/12/25 09:07:53;;;;;;;;;;;;;;;-2.32;65.87;100366.78;5087172;28;20401;-65
2022/12/25 09:10:18;;;;;;;;;;;;;;;-2.32;65.47;100371.34;5069750;28;19993;-65
2022/12/25 09:12:45;;;;;;;;;;;;;;;-2.39;65.42;100367.66;5086860;28;19932;-66
2022/12/25 09:15:11;;;;;;;;;;;;;;;-2.39;65.47;100370.34;5086527;28;19977;-65
2022/12/25 09:17:37;;;;;;;;;;;;;;;-2.35;65.90;100371.66;5084794;28;19932;-65
2022/12/25 09:20:03;;;;;;;;;;;;;;;-2.32;65.57;100382.88;5085587;28;19951;-65
2022/12/25 09:22:29;;;;;;;;;;;;;;;-2.29;65.49;100385.19;5088527;28;19932;-65
2022/12/25 09:24:55;;;;;;;;;;;;;;;-2.31;65.73;100389.06;5086738;28;19935;-65
2022/12/25 09:27:21;;;;;;;;;;;;;;;-2.32;65.47;100401.63;5085865;28;19928;-65
2022/12/25 09:29:48;;;;;;;;;;;;;;;-2.33;65.45;100397.28;5082008;28;20406;-65
2022/12/25 09:32:13;;;;;;;;;;;;;;;-2.34;65.74;100403.66;4756073;27;10000032;-65
2022/12/25 09:34:39;;;;;;;;;;;;;;;-2.35;65.63;100404.66;5119353;27;20257;-65
2022/12/25 09:37:05;;;;;;;;;;;;;;;-2.35;65.93;100406.47;5121611;27;19934;-65
2022/12/25 09:39:30;;;;;;;;;;;;;;;-2.38;66.15;100409.53;5114704;27;19932;-65
2022/12/25 09:41:59;;;;;;;;;;;;;;;-2.35;66.46;100398.44;5093881;28;19985;-65
2022/12/25 09:44:27;;;;;;;;;;;;;;;-2.32;66.35;100408.84;5102289;28;20390;-65
2022/12/25 09:46:57;;;;;;;;;;;;;;;-2.33;66.54;100405.31;5106824;28;20038;-65
2022/12/25 09:49:30;;;;;;;;;;;;;;;-2.31;66.43;100413.19;5105895;28;19942;-65
2022/12/25 09:51:57;;;;;;;;;;;;;;;-2.32;66.63;100414.19;5097420;28;20423;-65
2022/12/25 09:54:28;;;;;;;;;;;;;;;-2.32;66.62;100409.66;5086767;28;19964;-65
2022/12/25 09:56:54;;;;;;;;;;;;;;;-2.31;66.58;100414.00;5086606;28;20019;-65
2022/12/25 09:59:22;;;;;;;;;;;;;;;-2.31;66.35;100414.00;5088270;28;20429;-65
2022/12/25 10:01:53;;;;;;;;;;;;;;;-2.33;66.18;100421.38;5090089;28;20434;-65
2022/12/25 10:04:28;;;;;;;;;;;;;;;-2.33;66.01;100420.56;5105943;28;20000;-66
2022/12/25 10:06:58;;;;;;;;;;;;;;;-2.36;65.66;100421.75;5107086;28;19971;-66
2022/12/25 10:09:31;;;;;;;;;;;;;;;-2.36;65.52;100424.41;5106901;28;19967;-66
2022/12/25 10:12:09;;;;;;;;;;;;;;;-2.37;65.57;100424.59;5105590;28;20287;-66
2022/12/25 10:14:38;;;;;;;;;;;;;;;-2.36;65.57;100421.75;5102235;28;19953;-66
2022/12/25 10:17:12;;;;;;;;;;;;;;;-2.35;65.88;100422.56;5103766;28;19927;-66
2022/12/25 10:19:45;;;;;;;;;;;;;;;-2.37;65.79;100425.44;5105832;28;20485;-66
2022/12/25 10:22:14;;;;;;;;;;;;;;;-2.36;65.72;100440.50;5104810;28;20481;-66
2022/12/25 10:24:43;;;;;;;;;;;;;;;-2.34;65.87;100441.16;5103886;28;19928;-66
2022/12/25 10:27:13;;;;;;;;;;;;;;;-2.41;65.59;100440.19;5107248;28;20389;-67
2022/12/25 10:29:39;;;;;;;;;;;;;;;-2.32;65.80;100446.34;5103248;28;20163;-66
2022/12/25 10:32:05;;;;;;;;;;;;;;;-2.32;65.66;100439.13;5103571;28;19977;-66
2022/12/25 10:34:31;;;;;;;;;;;;;;;-2.35;65.66;100442.16;5103288;28;20034;-66
2022/12/25 10:36:58;;;;;;;;;;;;;;;-2.37;65.64;100451.38;5107945;28;20034;-66
2022/12/25 10:39:24;;;;;;;;;;;;;;;-2.39;65.87;100445.34;5101630;28;19928;-67
2022/12/25 10:42:08;;;;;;;;;;;;;;;-2.40;65.68;100449.03;5104234;28;20029;-67
2022/12/25 10:44:33;;;;;;;;;;;;;;;-2.44;66.13;100451.22;5101956;28;19932;-66
2022/12/25 10:47:00;;;;;;;;;;;;;;;-2.49;65.61;100457.13;5097000;28;19932;-66
2022/12/25 10:49:28;;;;;;;;;;;;;;;-2.52;65.67;100460.13;5095750;28;20014;-66
2022/12/25 10:51:53;;;;;;;;;;;;;;;-2.49;65.87;100456.28;5082572;28;19928;-66
2022/12/25 10:54:24;;;;;;;;;;;;;;;-2.44;65.86;100459.25;5082161;28;19959;-65
2022/12/25 10:56:53;;;;;;;;;;;;;;;-2.40;65.46;100457.06;5082528;28;19932;-66
2022/12/25 10:59:19;;;;;;;;;;;;;;;-2.45;65.58;100449.56;5085998;28;19932;-65
2022/12/25 11:01:45;;;;;;;;;;;;;;;-2.45;65.76;100465.63;5085738;28;19928;-65
2022/12/25 11:04:16;;;;;;;;;;;;;;;-2.45;65.65;100458.44;5084159;28;20238;-65
2022/12/25 11:06:42;;;;;;;;;;;;;;;-2.45;65.45;100454.91;5085977;28;20031;-66
2022/12/25 11:09:14;;;;;;;;;;;;;;;-2.45;65.75;100463.81;5083777;28;20030;-65
2022/12/25 11:11:41;;;;;;;;;;;;;;;-2.49;65.56;100458.94;5083472;28;20372;-65
2022/12/25 11:14:14;;;;;;;;;;;;;;;-2.75;65.41;100434.09;5089607;28;20449;-66
2022/12/25 11:16:40;;;;;;;;;;;;;;;-2.60;65.68;100452.94;5083510;28;19939;-65
2022/12/25 11:19:20;;;;;;;;;;;;;;;-2.60;65.64;100465.53;5090553;28;19927;-66
2022/12/25 11:21:49;;;;;;;;;;;;;;;-2.63;65.67;100466.69;5105298;28;19954;-66
2022/12/25 11:24:17;;;;;;;;;;;;;;;-2.62;65.85;100464.88;5092810;28;19928;-65
2022/12/25 11:26:47;;;;;;;;;;;;;;;-2.60;65.84;100466.34;5085887;28;19963;-65
2022/12/25 11:29:18;;;;;;;;;;;;;;;-2.56;65.81;100469.53;5087267;28;19971;-65
2022/12/25 11:31:45;;;;;;;;;;;;;;;-2.52;66.08;100476.19;5105836;28;19935;-65
2022/12/25 11:34:18;;;;;;;;;;;;;;;-2.53;65.89;100474.53;5103866;28;19931;-65
2022/12/25 11:36:45;;;;;;;;;;;;;;;-2.49;65.61;100481.22;5103601;28;19989;-65
2022/12/25 11:39:17;;;;;;;;;;;;;;;-2.50;65.71;100482.22;5084396;28;19971;-65
2022/12/25 11:41:44;;;;;;;;;;;;;;;-2.50;65.48;100492.09;5091117;28;19928;-65
2022/12/25 11:44:17;;;;;;;;;;;;;;;-2.57;65.31;100494.63;5095171;28;19988;-66
2022/12/25 11:46:45;;;;;;;;;;;;;;;-2.60;65.54;100490.44;5091873;28;19931;-65
2022/12/25 11:49:12;;;;;;;;;;;;;;;-2.59;65.63;100488.63;4756432;28;9999722;-66
2022/12/25 11:51:41;;;;;;;;;;;;;;;-2.59;65.76;100484.06;5111168;28;19927;-67
2022/12/25 11:54:13;;;;;;;;;;;;;;;-2.57;65.75;100503.50;5098515;28;19927;-66
2022/12/25 11:56:39;;;;;;;;;;;;;;;-2.57;65.79;100495.47;5099540;28;20503;-66
2022/12/25 11:59:07;;;;;;;;;;;;;;;-2.55;65.75;100497.97;5097224;28;20023;-67
2022/12/25 12:01:37;;;;;;;;;;;;;;;-2.57;65.81;100495.47;5100038;28;19928;-67
2022/12/25 12:04:06;;;;;;;;;;;;;;;-2.53;65.54;100505.84;5081611;28;20369;-66
2022/12/25 12:06:39;;;;;;;;;;;;;;;-2.51;65.52;100504.66;5077861;28;19928;-66
2022/12/25 12:09:17;;;;;;;;;;;;;;;-2.51;65.65;100501.97;5079793;28;19928;-66
2022/12/25 12:11:45;;;;;;;;;;;;;;;-2.50;65.42;100511.66;5085096;28;19928;-66
2022/12/25 12:14:18;;;;;;;;;;;;;;;-2.56;65.15;100515.03;5090191;28;20027;-66
2022/12/25 12:16:45;;;;;;;;;;;;;;;-2.64;65.40;100517.75;5106830;28;19928;-67
2022/12/25 12:19:12;;;;;;;;;;;;;;;-2.74;65.31;100509.88;5097565;28;19935;-66
2022/12/25 12:21:38;;;;;;;;;;;;;;;-2.68;65.14;100516.41;5105349;28;20031;-66
2022/12/25 12:24:05;;;;;;;;;;;;;;;-2.67;65.01;100532.31;5086429;28;19927;-66
2022/12/25 12:26:35;;;;;;;;;;;;;;;-2.64;65.06;100537.31;5102245;28;19927;-67
2022/12/25 12:29:02;;;;;;;;;;;;;;;-2.64;64.81;100541.84;5088444;28;20399;-66
2022/12/25 12:31:36;;;;;;;;;;;;;;;-2.63;64.68;100540.84;5109979;28;19934;-65
2022/12/25 12:34:04;;;;;;;;;;;;;;;-2.64;64.73;100536.50;5080090;28;19928;-65
2022/12/25 12:36:30;;;;;;;;;;;;;;;-2.67;64.68;100535.00;5094782;28;20485;-65
2022/12/25 12:38:56;;;;;;;;;;;;;;;-2.73;64.81;100538.34;5082967;28;19928;-65
2022/12/25 12:41:24;;;;;;;;;;;;;;;-2.78;64.93;100543.34;5085786;28;19981;-65
2022/12/25 12:43:53;;;;;;;;;;;;;;;-2.74;64.76;100539.34;5086660;28;19932;-65
2022/12/25 12:46:20;;;;;;;;;;;;;;;-2.72;64.46;100545.38;5085137;28;19978;-65
2022/12/25 12:48:46;;;;;;;;;;;;;;;-2.77;64.15;100545.88;5092170;28;19928;-65
2022/12/25 12:51:25;;;;;;;;;;;;;;;-2.82;64.01;100542.03;5096969;28;19928;-66
2022/12/25 12:54:03;;;;;;;;;;;;;;;-2.82;64.21;100542.03;5098176;28;19928;-65
2022/12/25 12:56:28;;;;;;;;;;;;;;;-2.82;64.38;100544.72;5079753;28;20157;-65
2022/12/25 12:58:54;;;;;;;;;;;;;;;-2.92;64.44;100539.53;5083726;28;19935;-67
2022/12/25 13:01:31;;;;;;;;;;;;;;;-3.01;64.73;100539.53;5085068;28;19935;-65
2022/12/25 13:04:25;;;;;;;;;;;;;;;-3.01;64.94;100546.72;5088244;28;19934;-65
2022/12/25 13:07:13;;;;;;;;;;;;;;;-3.05;65.33;100554.25;5096473;28;20513;-65
2022/12/25 13:09:53;;;;;;;;;;;;;;;-3.01;65.52;100555.56;5092510;28;19986;-65
2022/12/25 13:12:20;;;;;;;;;;;;;;;-2.96;65.27;100564.97;5092074;28;19935;-65
2022/12/25 13:14:46;;;;;;;;;;;;;;;-2.92;65.29;100568.97;5092011;28;19975;-65
2022/12/25 13:17:14;;;;;;;;;;;;;;;-2.88;65.37;100568.47;5107785;28;19988;-65
2022/12/25 13:19:41;;;;;;;;;;;;;;;-2.86;65.14;100571.81;5107030;28;20415;-65
2022/12/25 13:22:20;;;;;;;;;;;;;;;-2.89;64.99;100574.00;5106110;28;20337;-65
2022/12/25 13:24:53;;;;;;;;;;;;;;;-2.91;65.21;100578.69;5107672;28;19978;-65
2022/12/25 13:27:21;;;;;;;;;;;;;;;-2.87;65.23;100580.84;5102269;28;20145;-66
2022/12/25 13:29:46;;;;;;;;;;;;;;;-2.87;65.27;100582.69;5099799;28;19928;-65
2022/12/25 13:32:17;;;;;;;;;;;;;;;-2.92;65.57;100585.84;5077457;28;19981;-65
2022/12/25 13:34:42;;;;;;;;;;;;;;;-2.95;65.67;100594.22;5102273;28;19967;-65
2022/12/25 13:37:09;;;;;;;;;;;;;;;-2.95;65.75;100596.91;5108036;28;19955;-65
2022/12/25 13:39:35;;;;;;;;;;;;;;;-3.04;65.87;100593.38;5107909;28;20398;-65
2022/12/25 13:42:04;;;;;;;;;;;;;;;-3.18;66.45;100588.69;5104477;28;19928;-66
2022/12/25 13:44:34;;;;;;;;;;;;;;;-3.31;66.51;100590.00;5082680;28;19973;-65
2022/12/25 13:47:06;;;;;;;;;;;;;;;-3.51;67.11;100585.94;5087201;28;20197;-65
2022/12/25 13:49:34;;;;;;;;;;;;;;;-3.70;67.42;100580.69;5095544;28;19927;-65
2022/12/25 13:52:08;;;;;;;;;;;;;;;-3.90;67.87;100590.84;5093603;28;19928;-66
2022/12/25 13:54:37;;;;;;;;;;;;;;;-4.03;68.47;100595.78;5086903;28;20026;-66
2022/12/25 13:57:06;;;;;;;;;;;;;;;-4.09;68.85;100601.72;5100994;28;19927;-66
2022/12/25 13:59:32;;;;;;;;;;;;;;;-4.19;69.13;100607.19;5103207;28;20727;-66
2022/12/25 14:01:58;;;;;;;;;;;;;;;-4.25;69.53;100605.16;5104331;28;19931;-66
2022/12/25 14:04:24;;;;;;;;;;;;;;;-4.30;69.65;100603.78;5099890;28;19931;-65
2022/12/25 14:06:51;;;;;;;;;;;;;;;-4.30;69.55;100610.97;5085734;28;20028;-65
2022/12/25 14:09:17;;;;;;;;;;;;;;;-4.25;69.67;100608.66;5085970;28;20373;-65
2022/12/25 14:11:45;;;;;;;;;;;;;;;-4.20;69.74;100609.03;5086169;28;19928;-66
2022/12/25 14:14:17;;;;;;;;;;;;;;;-4.15;69.85;100614.75;5086570;28;19934;-66
2022/12/25 14:16:43;;;;;;;;;;;;;;;-4.12;69.63;100613.59;5084606;28;19928;-65
2022/12/25 14:19:21;;;;;;;;;;;;;;;-4.18;69.79;100608.88;5095941;28;20436;-66
2022/12/25 14:21:51;;;;;;;;;;;;;;;-4.27;70.08;100614.16;5102962;28;20470;-66